Time;durP1;ratioP1;P1;durP2;ratioP2;P2;SDS_P1;SDS_P2;PMS_P1;PMS_P2;Temp;Humidity;BMP_temperature;BMP_pressure;BME280_temperature;BME280_humidity;BME280_pressure;Samples;Min_cycle;Max_cycle;Signal;HPM_P1;HPM_P2
2023/11/23 00:02:05;;;;;;;13.73;9.80;;;;;;;;;;4959833;29;20234;-89
2023/11/23 00:04:33;;;;;;;12.02;10.45;;;;;;;;;;4960996;28;20210;-89
2023/11/23 00:07:03;;;;;;;11.00;8.90;;;;;;;;;;4959320;29;20194;-89
2023/11/23 00:09:31;;;;;;;16.05;8.30;;;;;;;;;;4960561;29;20258;-89
2023/11/23 00:11:59;;;;;;;12.65;8.85;;;;;;;;;;4963937;29;20228;-88
2023/11/23 00:14:30;;;;;;;14.40;8.27;;;;;;;;;;4964317;29;20659;-90
2023/11/23 00:16:58;;;;;;;13.05;9.95;;;;;;;;;;4964289;29;20264;-88
2023/11/23 00:19:30;;;;;;;11.73;8.75;;;;;;;;;;4960356;29;20328;-90
2023/11/23 00:22:01;;;;;;;11.18;8.90;;;;;;;;;;4960106;29;20222;-89
2023/11/23 00:27:24;;;;;;;13.10;8.00;;;;;;;;;;4955865;29;20230;-90
2023/11/23 00:29:53;;;;;;;9.77;7.95;;;;;;;;;;4960900;29;20226;-91
2023/11/23 00:32:33;;;;;;;9.23;8.23;;;;;;;;;;4960954;29;20705;-91
2023/11/23 00:35:03;;;;;;;12.90;9.75;;;1.90;1.00;;;;;;4976639;28;20261;-90
2023/11/23 00:37:34;;;;;;;15.07;9.88;;;;;;;;;;4981236;28;20221;-91
2023/11/23 00:42:44;;;;;;;11.25;9.30;;;;;;;;;;5159523;23;20233;-91
2023/11/23 00:45:17;;;;;;;11.55;8.75;;;;;;;;;;4981118;28;20189;-91
2023/11/23 00:47:47;;;;;;;10.13;7.80;;;;;;;;;;4980695;28;20201;-91
2023/11/23 00:50:19;;;;;;;10.52;8.68;;;;;;;;;;4969363;28;20246;-91
2023/11/23 00:52:53;;;;;;;11.70;8.73;;;;;;;;;;4960310;29;20225;-91
2023/11/23 00:55:24;;;;;;;10.45;8.15;;;;;;;;;;4960623;29;20209;-91
2023/11/23 00:58:03;;;;;;;12.98;8.38;;;;;;;;;;4960863;29;20202;-90
2023/11/23 01:00:34;;;;;;;11.52;10.20;;;;;;;;;;4961960;29;20206;-90
2023/11/23 01:03:01;;;;;;;12.45;8.77;;;;;;;;;;4961058;28;20712;-90
2023/11/23 01:05:30;;;;;;;11.55;8.20;;;;;;;;;;4960079;29;20629;-90
2023/11/23 01:07:57;;;;;;;11.38;7.28;;;;;;;;;;4959704;29;20214;-90
2023/11/23 01:10:26;;;;;;;9.60;7.20;;;;;;;;;;4959638;29;20281;-90
2023/11/23 01:12:54;;;;;;;8.05;7.10;;;;;;;;;;4959176;29;20306;-90
2023/11/23 01:15:22;;;;;;;8.90;7.60;;;;;;;;;;4959497;29;20257;-89
2023/11/23 01:17:49;;;;;;;11.45;7.28;;;;;;;;;;4959192;29;20277;-89
2023/11/23 01:20:19;;;;;;;9.63;7.88;;;;;;;;;;4959881;29;20257;-89
2023/11/23 01:22:49;;;;;;;9.50;6.38;;;;;;;;;;4966869;29;20217;-90
2023/11/23 01:25:18;;;;;;;8.52;6.80;;;;;;;;;;4978614;28;20191;-90
2023/11/23 01:27:45;;;;;;;9.50;7.18;;;;;;;;;;4968852;29;20238;-90
2023/11/23 01:30:13;;;;;;;7.03;6.22;;;;;;;;;;4967610;29;20229;-90
2023/11/23 01:32:40;;;;;;;8.38;6.60;;;;;;;;;;4976650;29;20229;-90
2023/11/23 01:35:08;;;;;;;7.13;5.93;;;;;;;;;;4978124;28;20225;-90
2023/11/23 01:37:35;;;;;;;7.95;6.28;;;;;;;;;;4974800;29;20218;-90
2023/11/23 01:40:05;;;;;;;7.60;6.07;;;;;;;;;;4965556;29;20207;-89
2023/11/23 01:42:32;;;;;;;7.22;6.20;;;;;;;;;;4962986;29;20230;-90
2023/11/23 01:44:59;;;;;;;7.15;6.15;;;;;;;;;;4961469;29;20210;-90
2023/11/23 01:47:28;;;;;;;6.70;5.25;;;2.70;1.00;;;;;;4960719;29;20217;-90
2023/11/23 01:49:57;;;;;;;8.40;6.43;;;2.70;1.00;;;;;;4960333;29;20685;-90
2023/11/23 01:52:24;;;;;;;11.88;6.45;;;;;;;;;;4960622;29;20713;-90
2023/11/23 01:54:52;;;;;;;7.50;6.18;;;;;;;;;;4962140;29;20229;-89
2023/11/23 01:57:26;;;;;;;6.57;5.97;;;;;;;;;;4959361;29;20202;-90
2023/11/23 01:59:54;;;;;;;6.95;5.47;;;;;;;;;;4961658;29;20265;-90
2023/11/23 02:02:22;;;;;;;7.05;5.60;;;;;;;;;;4965927;28;20233;-89
2023/11/23 02:04:50;;;;;;;7.40;6.05;;;;;;;;;;4962724;29;20202;-89
2023/11/23 02:07:17;;;;;;;5.88;5.32;;;;;;;;;;4961298;29;20681;-89
2023/11/23 02:09:50;;;;;;;6.30;4.88;;;;;;;;;;4958844;29;20225;-91
2023/11/23 02:12:19;;;;;;;5.90;5.30;;;;;;;;;;4958807;29;20226;-90
2023/11/23 02:14:52;;;;;;;5.72;5.22;;;3.00;1.00;;;;;;4973299;29;20237;-90
2023/11/23 02:17:20;;;;;;;6.07;4.70;;;;;;;;;;4961217;29;20214;-90
2023/11/23 02:19:48;;;;;;;5.70;5.15;;;;;;;;;;4959073;29;20206;-90
2023/11/23 02:22:19;;;;;;;6.03;4.88;;;;;;;;;;4958550;29;20250;-89
2023/11/23 02:24:48;;;;;;;4.85;4.45;;;;;;;;;;4958229;29;20261;-91
2023/11/23 02:27:15;;;;;;;7.72;4.65;;;;;;;;;;4958029;29;20665;-90
2023/11/23 02:29:46;;;;;;;9.18;5.05;;;;;;;;;;4957847;29;20222;-90
2023/11/23 02:32:14;;;;;;;6.70;5.00;;;;;;;;;;4958414;29;20227;-90
2023/11/23 02:34:41;;;;;;;6.30;4.80;;;;;;;;;;4957854;29;20210;-90
2023/11/23 02:37:09;;;;;;;6.57;5.22;;;;;;;;;;4957622;29;20740;-90
2023/11/23 02:39:36;;;;;;;9.40;7.80;;;;;;;;;;4969416;28;20233;-90
2023/11/23 02:42:05;;;;;;;6.65;4.75;;;;;;;;;;4979360;28;20230;-90
2023/11/23 02:44:33;;;;;;;7.63;5.07;;;;;;;;;;4976331;28;20202;-91
2023/11/23 02:47:02;;;;;;;6.90;4.95;;;;;;;;;;4959767;29;20308;-89
2023/11/23 02:49:29;;;;;;;5.65;4.72;;;;;;;;;;4959404;29;20226;-90
2023/11/23 02:51:57;;;;;;;4.10;3.67;;;;;;;;;;4959225;29;20226;-90
2023/11/23 02:54:25;;;;;;;4.55;3.83;;;;;;;;;;4958987;29;20274;-91
2023/11/23 02:56:52;;;;;;;6.25;3.80;;;;;;;;;;4959122;29;20648;-89
2023/11/23 02:59:21;;;;;;;6.20;4.50;;;;;;;;;;4968498;29;20195;-90
2023/11/23 03:01:50;;;;;;;8.85;4.93;;;;;;;;;;4969010;28;20233;-90
2023/11/23 03:04:17;;;;;;;5.28;4.30;;;;;;;;;;4966230;29;20215;-89
2023/11/23 03:06:45;;;;;;;5.00;4.50;;;;;;;;;;4963925;29;20210;-90
2023/11/23 03:09:13;;;;;;;6.50;4.68;;;;;;;;;;4960421;29;20213;-91
2023/11/23 03:11:41;;;;;;;8.48;4.90;;;;;;;;;;4958944;29;20233;-91
2023/11/23 03:14:10;;;;;;;4.65;3.70;;;;;;;;;;4960993;28;20240;-90
2023/11/23 03:16:39;;;;;;;4.32;3.92;;;;;;;;;;4961738;29;20214;-90
2023/11/23 03:19:09;;;;;;;3.92;3.58;;;;;;;;;;4961570;29;20230;-90
2023/11/23 03:21:37;;;;;;;4.28;3.90;;;;;;;;;;4962131;29;20273;-90
2023/11/23 03:24:04;;;;;;;4.72;4.05;;;;;;;;;;4971082;29;20242;-91
2023/11/23 03:26:32;;;;;;;4.45;3.80;;;;;;;;;;4970334;29;20218;-90
2023/11/23 03:29:02;;;;;;;6.47;5.15;;;;;;;;;;4972058;29;20202;-90
2023/11/23 03:31:46;;;;;;;6.10;4.40;;;;;;;;;;4973521;28;20277;-89
2023/11/23 03:37:17;;;;;;;6.57;4.40;;;3.80;1.00;;;;;;4975971;28;20203;-90
2023/11/23 03:39:47;;;;;;;4.22;3.83;;;;;;;;;;4972396;28;20198;-90
2023/11/23 03:42:20;;;;;;;5.13;4.38;;;;;;;;;;4964758;29;20226;-90
2023/11/23 03:44:48;;;;;;;4.05;3.60;;;;;;;;;;4967066;28;20236;-89
2023/11/23 03:47:19;;;;;;;5.00;3.67;;;;;;;;;;4977694;28;20213;-89
2023/11/23 03:49:52;;;;;;;6.97;4.78;;;;;;;;;;4981890;28;20236;-91
2023/11/23 03:52:19;;;;;;;4.25;3.85;;;;;;;;;;4982337;28;20218;-91
2023/11/23 03:54:47;;;;;;;5.50;3.88;;;;;;;;;;4982422;28;20195;-91
2023/11/23 03:57:14;;;;;;;4.85;4.18;;;;;;;;;;4981901;28;20287;-91
2023/11/23 03:59:42;;;;;;;4.55;4.03;;;;;;;;;;4982043;28;20217;-90
2023/11/23 04:02:09;;;;;;;5.10;4.03;;;;;;;;;;4966461;29;20223;-90
2023/11/23 04:04:46;;;;;;;6.50;3.83;;;;;;;;;;4962456;29;20221;-90
2023/11/23 04:07:17;;;;;;;5.57;5.05;;;;;;;;;;4962482;29;20234;-90
2023/11/23 04:09:44;;;;;;;4.15;3.80;;;;;;;;;;4964337;29;20205;-90
2023/11/23 04:12:12;;;;;;;5.63;4.65;;;;;;;;;;4961762;29;20234;-90
2023/11/23 04:14:39;;;;;;;5.63;3.80;;;;;;;;;;4961544;29;20261;-90
2023/11/23 04:17:06;;;;;;;4.80;4.10;;;;;;;;;;4961357;29;20709;-90
2023/11/23 04:19:36;;;;;;;3.40;2.95;;;;;;;;;;4963309;29;20202;-90
2023/11/23 04:22:06;;;;;;;4.82;3.72;;;;;;;;;;4962729;29;20230;-90
2023/11/23 04:24:47;;;;;;;5.68;4.30;;;4.40;99.90;;;;;;4963236;28;20237;-90
2023/11/23 04:27:16;;;;;;;4.88;4.20;;;;;;;;;;4965192;29;20226;-90
2023/11/23 04:29:50;;;;;;;4.38;3.75;;;;;;;;;;4966388;29;20253;-90
2023/11/23 04:32:18;;;;;;;5.03;4.10;;;;;;;;;;4968295;29;20294;-90
2023/11/23 04:34:48;;;;;;;4.75;4.32;;;;;;;;;;4976016;28;20274;-90
2023/11/23 04:37:23;;;;;;;6.55;4.78;;;;;;;;;;4967471;29;20211;-90
2023/11/23 04:39:52;;;;;;;5.90;4.50;;;;;;;;;;4966669;29;20257;-90
2023/11/23 04:42:32;;;;;;;4.95;4.00;;;;;;;;;;4962934;29;20277;-90
2023/11/23 04:48:10;;;;;;;6.53;4.50;;;;;;;;;;4965390;29;20578;-91
2023/11/23 04:51:19;;;;;;;;;;;;;;;;;;;;;
2023/11/23 04:54:04;;;;;;;5.80;3.88;;;;;;;;;;4952171;29;20245;-90
2023/11/23 04:57:03;;;;;;;5.00;4.47;;;4.80;99.90;;;;;;4968707;29;20216;-89
2023/11/23 04:59:59;;;;;;;3.75;3.42;;;4.80;99.90;;;;;;4962758;28;20210;-90
2023/11/23 05:02:29;;;;;;;6.82;3.80;;;;;;;;;;4969592;29;20309;-90
2023/11/23 05:05:24;;;;;;;5.15;4.47;;;4.90;99.90;;;;;;4969596;29;20210;-91
2023/11/23 05:08:17;;;;;;;5.20;4.70;;;4.90;99.90;;;;;;4963697;28;20230;-90
2023/11/23 05:10:58;;;;;;;5.32;4.30;;;;;;;;;;4962979;29;20227;-91
2023/11/23 05:13:27;;;;;;;6.32;4.45;;;;;;;;;;4972542;28;20250;-90
2023/11/23 05:15:57;;;;;;;7.28;4.88;;;;;;;;;;4978115;29;20206;-89
2023/11/23 05:18:27;;;;;;;6.65;5.05;;;;;;;;;;4977537;29;20266;-90
2023/11/23 05:20:55;;;;;;;9.30;5.45;;;;;;;;;;4967678;29;20191;-91
2023/11/23 05:23:44;;;;;;;6.22;5.22;;;;;;;;;;4964290;29;20199;-91
2023/11/23 05:26:13;;;;;;;7.68;5.07;;;;;;;;;;4962413;29;20227;-91
2023/11/23 05:28:50;;;;;;;7.50;4.63;;;;;;;;;;4962860;28;20665;-91
2023/11/23 05:31:19;;;;;;;5.70;4.68;;;5.10;1.00;;;;;;4963079;29;20677;-90
2023/11/23 05:33:47;;;;;;;7.82;4.28;;;;;;;;;;4962979;29;20195;-89
2023/11/23 05:36:15;;;;;;;4.97;4.57;;;;;;;;;;4962293;28;20602;-89
2023/11/23 05:38:47;;;;;;;6.45;4.65;;;;;;;;;;4961826;28;20210;-91
2023/11/23 05:43:53;;;;;;;6.47;4.82;;;;;;;;;;4941158;29;20222;-88
2023/11/23 05:46:20;;;;;;;6.82;5.78;;;;;;;;;;4952307;29;20215;-90
2023/11/23 05:48:48;;;;;;;8.30;5.95;;;5.40;1.00;;;;;;4944665;29;20218;-90
2023/11/23 05:51:15;;;;;;;5.68;5.10;;;;;;;;;;4943178;29;20230;-89
2023/11/23 05:53:43;;;;;;;7.97;5.97;;;5.40;1.00;;;;;;4941628;29;20218;-90
2023/11/23 05:56:10;;;;;;;6.85;5.72;;;;;;;;;;4942771;29;20203;-89
2023/11/23 05:58:37;;;;;;;6.97;5.88;;;5.60;99.90;;;;;;4943222;29;20661;-90
2023/11/23 06:01:05;;;;;;;11.98;5.82;;;5.60;1.00;;;;;;4943559;29;20237;-89
2023/11/23 06:03:32;;;;;;;8.90;5.80;;;5.70;99.90;;;;;;4947909;29;20283;-90
2023/11/23 06:05:59;;;;;;;13.18;6.78;;;;;;;;;;4960772;28;20191;-87
2023/11/23 06:08:28;;;;;;;9.48;6.10;;;6.00;99.90;;;;;;4955673;28;20287;-89
2023/11/23 06:10:55;;;;;;;8.15;6.57;;;5.90;1.00;;;;;;4946785;29;20262;-89
2023/11/23 06:13:22;;;;;;;8.52;6.80;;;7.50;1.00;;;;;;4950144;29;20247;-88
2023/11/23 06:15:54;;;;;;;10.07;6.78;;;6.00;99.90;;;;;;4960546;28;20194;-92
2023/11/23 06:18:24;;;;;;;9.50;7.45;;;;;;;;;;4960578;28;20213;-90
2023/11/23 06:20:53;;;;;;;10.98;6.45;;;;;;;;;;4959295;28;20215;-91
2023/11/23 06:23:33;;;;;;;8.57;6.75;;;;;;;;;;4957824;28;20231;-88
2023/11/23 06:26:20;;;;;;;8.73;7.28;;;6.10;1.00;;;;;;4960616;28;20297;-89
2023/11/23 06:28:47;;;;;;;10.48;7.55;;;;;;;;;;4960374;28;20252;-86
2023/11/23 06:31:14;;;;;;;9.40;7.55;;;;;;;;;;4960427;28;20215;-86
2023/11/23 06:33:42;;;;;;;8.75;7.70;;;6.10;99.90;;;;;;4957408;28;20222;-88
2023/11/23 06:36:10;;;;;;;10.45;8.40;;;6.20;99.90;;;;;;4946585;29;20206;-89
2023/11/23 06:38:36;;;;;;;9.40;7.40;;;7.30;1.00;;;;;;4959014;29;20190;-88
2023/11/23 14:25:41;;;;;;;10.07;6.20;;;;;;;;;;1326142;23;20875;-90
2023/11/23 14:31:39;;;;;;;6.13;5.43;;;10.00;99.90;;;;;;4993884;28;20485;-93
2023/11/23 14:34:31;;;;;;;;;;;;;;;;;;;;;
2023/11/23 14:41:03;;;;;;;9.83;6.10;;;10.10;99.90;;;;;;4956572;28;20440;-92
2023/11/23 14:44:24;;;;;;;7.73;6.67;;;10.10;99.90;;;;;;4968533;28;20497;-92
2023/11/23 15:19:58;;;;;;;10.80;9.33;;;10.00;99.90;;;;;;4974418;28;20457;-91
2023/11/23 15:25:29;;;;;;;10.67;9.57;;;;;;;;;;4973664;28;20427;-92
2023/11/23 15:28:25;;;;;;;9.83;8.53;;;;;;;;;;4974682;29;20449;-92
2023/11/23 15:36:33;;;;;;;11.20;9.93;;;;;;;;;;5020917;23;20501;-90
2023/11/23 15:39:44;;;;;;;10.63;8.53;;;10.20;99.90;;;;;;4971608;29;20440;-91
2023/11/23 15:42:48;;;;;;;11.23;9.73;;;10.30;79.60;;;;;;4945744;29;20447;-92
2023/11/23 15:52:16;;;;;;;8.33;7.50;;;;;;;;;;4921092;29;20435;-92
2023/11/23 15:55:00;;;;;;;10.33;8.47;;;;;;;;;;4941364;28;20450;-92
2023/11/23 16:13:46;;;;;;;9.17;7.67;;;;;;;;;;5000678;23;20525;-92
2023/11/23 16:16:30;;;;;;;8.43;7.53;;;;;;;;;;4979666;29;20462;-94
2023/11/23 16:19:20;;;;;;;8.13;6.90;;;;;;;;;;4980096;28;20489;-94
2023/11/23 16:22:17;;;;;;;7.83;7.13;;;10.60;1.00;;;;;;4976697;28;20541;-94
2023/11/23 16:24:44;;;;;;;7.83;6.70;;;;;;;;;;4971024;28;20438;-90
2023/11/23 16:27:13;;;;;;;8.60;7.50;;;;;;;;;;4971528;29;20449;-87
2023/11/23 16:29:42;;;;;;;9.27;6.87;;;;;;;;;;4972076;29;20421;-89
2023/11/23 16:32:09;;;;;;;6.87;6.27;;;;;;;;;;4981278;28;20444;-88
2023/11/23 16:34:36;;;;;;;10.07;7.30;;;10.60;1.00;;;;;;4979233;28;20461;-88
2023/11/23 16:37:05;;;;;;;7.30;6.80;;;10.60;1.00;;;;;;4970646;29;20454;-88
2023/11/23 16:39:32;;;;;;;12.37;7.10;;;10.90;1.00;;;;;;4974919;29;20432;-87
2023/11/23 16:41:59;;;;;;;8.40;6.70;;;;;;;;;;4974579;29;20464;-89
2023/11/23 16:44:26;;;;;;;6.63;6.00;;;10.70;1.00;;;;;;4970823;29;20459;-89
2023/11/23 16:46:56;;;;;;;7.27;6.57;;;10.80;1.00;;;;;;4973235;29;20457;-89
2023/11/23 16:49:23;;;;;;;7.20;6.50;;;10.80;1.00;;;;;;4975513;29;20438;-89
2023/11/23 16:51:51;;;;;;;8.10;6.53;;;;;;;;;;4970218;29;20545;-90
2023/11/23 16:54:19;;;;;;;9.23;7.20;;;;;;;;;;4967584;29;20441;-89
2023/11/23 16:56:47;;;;;;;7.70;6.93;;;;;;;;;;4971063;29;20777;-88
2023/11/23 16:59:16;;;;;;;7.33;6.57;;;;;;;;;;4979216;28;20450;-90
2023/11/23 17:01:44;;;;;;;8.57;6.83;;;;;;;;;;4980869;28;20455;-88
2023/11/23 17:04:17;;;;;;;7.47;6.53;;;;;;;;;;4979747;28;20453;-89
2023/11/23 17:06:44;;;;;;;7.13;6.43;;;;;;;;;;4978841;29;20481;-89
2023/11/23 17:09:12;;;;;;;7.90;7.10;;;;;;;;;;4979515;28;20446;-90
2023/11/23 17:11:40;;;;;;;8.27;7.30;;;;;;;;;;4977286;29;20493;-88
2023/11/23 17:14:07;;;;;;;12.43;6.80;;;;;;;;;;4970726;29;20464;-88
2023/11/23 17:16:34;;;;;;;7.17;6.57;;;10.70;1.00;;;;;;4968093;29;20438;-88
2023/11/23 17:19:01;;;;;;;8.50;7.10;;;10.70;1.00;;;;;;4974990;29;20443;-89
2023/11/23 17:21:30;;;;;;;13.10;7.80;;;10.90;99.90;;;;;;4980389;28;20445;-90
2023/11/23 17:23:58;;;;;;;12.47;8.03;;;;;;;;;;4978167;28;20429;-88
2023/11/23 17:26:25;;;;;;;8.50;6.97;;;;;;;;;;4969935;29;20467;-89
2023/11/23 17:28:54;;;;;;;10.17;7.80;;;10.60;93.80;;;;;;4965327;29;20486;-89
2023/11/23 17:31:21;;;;;;;10.47;8.93;;;;;;;;;;4969760;29;20465;-89
2023/11/23 17:33:48;;;;;;;8.23;7.40;;;;;;;;;;4968262;28;20427;-89
2023/11/23 17:36:16;;;;;;;8.23;7.43;;;;;;;;;;4967153;29;20451;-89
2023/11/23 17:38:45;;;;;;;9.33;8.43;;;;;;;;;;4965434;29;20468;-89
2023/11/23 17:41:16;;;;;;;8.97;8.07;;;;;;;;;;4966143;29;20420;-89
2023/11/23 17:43:46;;;;;;;9.10;8.20;;;;;;;;;;4973955;29;20482;-89
2023/11/23 17:46:13;;;;;;;10.07;8.63;;;10.50;99.90;;;;;;4978891;28;20431;-90
2023/11/23 17:48:40;;;;;;;12.87;8.33;;;;;;;;;;4968142;29;20474;-89
2023/11/23 17:51:09;;;;;;;14.13;8.43;;;;;;;;;;4975755;28;20492;-90
2023/11/23 17:53:37;;;;;;;9.30;8.20;;;;;;;;;;4979622;28;20473;-89
2023/11/23 17:56:09;;;;;;;10.50;7.77;;;;;;;;;;4972698;29;20409;-88
2023/11/23 17:58:40;;;;;;;7.97;7.10;;;;;;;;;;4974073;29;20443;-89
2023/11/23 18:01:07;;;;;;;11.80;7.67;;;10.80;1.00;;;;;;4973803;29;20415;-88
2023/11/23 18:03:34;;;;;;;7.83;6.97;;;;;;;;;;4975656;29;20499;-89
2023/11/23 18:06:01;;;;;;;8.67;7.57;;;;;;;;;;4969228;29;20444;-88
2023/11/23 18:08:28;;;;;;;10.27;7.70;;;10.90;99.90;;;;;;4965976;29;20451;-88
2023/11/23 18:10:58;;;;;;;11.27;8.83;;;10.60;99.90;;;;;;4966353;29;20954;-87
2023/11/23 18:13:28;;;;;;;8.80;7.90;;;10.60;99.90;;;;;;4964699;29;20472;-87
2023/11/23 18:15:55;;;;;;;14.23;8.03;;;10.60;99.90;;;;;;4971734;29;20454;-87
2023/11/23 18:18:24;;;;;;;9.93;7.90;;;10.50;99.90;;;;;;4976169;28;20421;-88
2023/11/23 18:20:51;;;;;;;9.87;7.33;;;10.50;99.90;;;;;;4970390;29;20428;-88
2023/11/23 18:23:18;;;;;;;9.37;8.13;;;10.60;99.90;;;;;;4976746;28;20475;-88
2023/11/23 18:25:46;;;;;;;10.80;8.93;;;;;;;;;;4978257;28;20435;-88
2023/11/23 18:28:13;;;;;;;10.37;9.03;;;9.70;1.00;;;;;;4977720;29;20513;-86
2023/11/23 18:30:42;;;;;;;9.03;8.13;;;10.60;99.90;;;;;;4976743;29;20446;-87
2023/11/23 18:33:10;;;;;;;9.50;7.73;;;;;;;;;;4977975;28;20425;-88
2023/11/23 18:35:38;;;;;;;9.97;8.57;;;;;;;;;;4978135;28;20430;-88
2023/11/23 18:38:05;;;;;;;11.50;8.73;;;;;;;;;;4974937;29;20453;-91
2023/11/23 18:40:33;;;;;;;10.23;7.53;;;10.70;99.90;;;;;;4976282;29;20424;-88
2023/11/23 18:43:06;;;;;;;10.20;7.77;;;;;;;;;;4978354;28;20456;-88
2023/11/23 18:45:33;;;;;;;11.53;7.80;;;;;;;;;;4981343;28;20424;-89
2023/11/23 18:48:22;;;;;;;9.87;7.40;;;10.50;1.00;;;;;;4982309;28;20497;-88
2023/11/23 18:50:50;;;;;;;8.53;7.50;;;;;;;;;;4981659;28;20426;-89
2023/11/23 18:53:19;;;;;;;7.87;6.87;;;;;;;;;;4980801;28;20461;-89
2023/11/23 18:55:49;;;;;;;8.30;7.43;;;;;;;;;;4977275;29;20446;-90
2023/11/23 18:58:22;;;;;;;8.80;6.77;;;;;;;;;;4982202;28;20426;-91
2023/11/23 19:00:51;;;;;;;9.70;7.97;;;;;;;;;;4982348;28;20434;-90
2023/11/23 19:06:12;;;;;;;8.37;6.60;;;;;;;;;;4982949;28;20430;-91
2023/11/23 19:11:27;;;;;;;6.63;5.70;;;;;;;;;;4971685;28;20428;-89
2023/11/23 19:13:58;;;;;;;6.53;5.60;;;;;;;;;;4973065;29;20453;-90
2023/11/23 19:16:28;;;;;;;5.60;4.93;;;;;;;;;;4968893;28;20923;-90
2023/11/23 19:21:57;;;;;;;5.80;4.73;;;;;;;;;;4964589;28;21051;-90
2023/11/23 19:24:53;;;;;;;6.43;5.30;;;;;;;;;;4969129;29;20465;-89
2023/11/23 19:27:23;;;;;;;6.82;5.30;;;;;;;;;;4972706;29;20444;-90
2023/11/23 19:29:55;;;;;;;8.23;6.27;;;;;;;;;;4982182;28;20197;-93
2023/11/23 19:32:38;;;;;;;5.73;4.80;;;10.50;1.00;;;;;;4982060;28;20469;-91
2023/11/23 19:38:11;;;;;;;4.50;3.90;;;10.40;1.00;;;;;;4975352;28;20430;-90
2023/11/23 19:40:39;;;;;;;5.30;3.77;;;;;;;;;;4977601;29;20434;-89
2023/11/23 19:43:11;;;;;;;3.40;2.00;;;;;;;;;;4974918;29;20520;-90
2023/11/23 19:45:38;;;;;;;9.67;1.87;;;;;;;;;;4979291;28;20441;-88
2023/11/23 19:48:06;;;;;;;1.63;1.10;;;;;;;;;;4979592;28;20458;-88
2023/11/23 19:50:35;;;;;;;2.20;1.77;;;9.40;1.00;;;;;;4972917;29;20454;-88
2023/11/23 19:53:04;;;;;;;3.27;1.20;;;9.60;41.00;;;;;;4967630;29;20558;-88
2023/11/23 19:55:33;;;;;;;1.73;1.20;;;9.10;13.50;;;;;;4969258;28;20454;-88
2023/11/23 19:58:03;;;;;;;4.13;1.30;;;;;;;;;;4975325;29;20545;-89
2023/11/23 20:00:31;;;;;;;7.83;1.40;;;;;;;;;;4968150;29;20439;-89
2023/11/23 20:02:59;;;;;;;3.87;0.97;;;;;;;;;;4965921;29;20460;-89
2023/11/23 20:05:26;;;;;;;4.33;1.50;;;;;;;;;;4966832;28;20485;-89
2023/11/23 20:07:54;;;;;;;3.10;1.80;;;;;;;;;;4967152;29;20432;-89
2023/11/23 20:10:23;;;;;;;2.57;1.63;;;;;;;;;;4967605;29;20454;-90
2023/11/23 20:12:51;;;;;;;4.27;2.00;;;;;;;;;;4980317;28;20469;-92
2023/11/23 20:15:18;;;;;;;3.50;1.80;;;;;;;;;;4981206;28;20445;-91
2023/11/23 20:17:46;;;;;;;4.90;1.63;;;;;;;;;;4981777;28;20446;-90
2023/11/23 20:20:14;;;;;;;2.43;1.53;;;;;;;;;;4980763;28;20454;-87
2023/11/23 20:22:42;;;;;;;5.30;2.50;;;;;;;;;;4972770;29;20513;-89
2023/11/23 20:25:11;;;;;;;2.40;1.03;;;;;;;;;;4971911;29;20522;-90
2023/11/23 20:27:41;;;;;;;4.97;2.30;;;;;;;;;;4972010;29;20708;-89
2023/11/23 20:30:09;;;;;;;4.03;1.60;;;;;;;;;;4968554;29;20461;-91
2023/11/23 20:32:36;;;;;;;3.72;1.27;;;8.30;99.90;;;;;;4967501;29;20473;-89
2023/11/23 20:35:05;;;;;;;6.78;1.65;;;8.30;99.90;;;;;;4966938;29;20241;-89
2023/11/23 20:37:32;;;;;;;4.45;2.22;;;;;;;;;;4966383;29;20201;-90
2023/11/23 20:39:59;;;;;;;4.25;1.70;;;;;;;;;;4965804;29;20230;-90
2023/11/23 20:42:26;;;;;;;10.73;1.67;;;8.00;99.90;;;;;;4966188;29;20313;-90
2023/11/23 20:44:54;;;;;;;1.87;1.20;;;8.30;1.00;;;;;;4964885;29;20482;-89
2023/11/23 20:47:22;;;;;;;9.63;2.20;;;;;;;;;;4965167;29;20455;-89
2023/11/23 20:49:50;;;;;;;10.15;1.92;;;;;;;;;;4966064;29;20445;-91
2023/11/23 20:52:25;;;;;;;5.43;1.75;;;;;;;;;;4966696;29;20384;-91
2023/11/23 20:54:53;;;;;;;4.50;1.90;;;;;;;;;;4972388;29;20210;-91
2023/11/23 20:57:20;;;;;;;10.43;2.30;;;;;;;;;;4975428;29;20482;-93
2023/11/23 20:59:48;;;;;;;3.92;1.55;;;;;;;;;;4969231;29;20520;-90
2023/11/23 21:02:17;;;;;;;3.35;2.30;;;;;;;;;;4964498;29;20737;-89
2023/11/23 21:04:45;;;;;;;5.03;2.37;;;7.80;99.90;;;;;;4963920;29;20222;-89
2023/11/23 21:07:13;;;;;;;5.30;1.70;;;8.00;99.90;;;;;;4969335;28;20453;-90
2023/11/23 21:09:40;;;;;;;4.47;1.40;;;;;;;;;;4971112;29;20534;-90
2023/11/23 21:12:08;;;;;;;5.18;1.60;;;;;;;;;;4973042;29;20487;-89
2023/11/23 21:14:36;;;;;;;5.97;2.10;;;;;;;;;;4972956;29;20214;-88
2023/11/23 21:17:06;;;;;;;3.92;2.25;;;;;;;;;;4974180;29;20458;-89
2023/11/23 21:19:36;;;;;;;2.50;1.47;;;;;;;;;;4971020;29;20210;-89
2023/11/23 21:22:04;;;;;;;5.25;2.13;;;;;;;;;;4963931;29;20436;-89
2023/11/23 21:24:35;;;;;;;4.30;1.50;;;;;;;;;;4967154;29;20222;-90
2023/11/23 21:27:02;;;;;;;3.97;2.33;;;;;;;;;;4978339;28;20979;-90
2023/11/23 21:29:29;;;;;;;4.38;1.95;;;;;;;;;;4973760;28;20421;-89
2023/11/23 21:31:56;;;;;;;5.90;1.80;;;8.30;99.90;;;;;;4967509;29;20226;-89
2023/11/23 21:34:23;;;;;;;9.80;2.08;;;;;;;;;;4965846;29;20478;-90
2023/11/23 21:36:52;;;;;;;4.75;2.22;;;;;;;;;;4976154;28;20210;-90
2023/11/23 21:39:22;;;;;;;4.15;1.60;;;;;;;;;;4968485;29;20210;-89
2023/11/23 21:41:50;;;;;;;11.57;2.23;;;;;;;;;;4962986;29;20230;-89
2023/11/23 21:44:17;;;;;;;9.43;2.57;;;8.10;99.90;;;;;;4963849;29;20528;-88
2023/11/23 21:46:45;;;;;;;6.43;2.17;;;8.10;99.90;;;;;;4967411;29;20486;-89
2023/11/23 21:49:12;;;;;;;7.63;2.33;;;;;;;;;;4977278;29;20485;-89
2023/11/23 21:51:39;;;;;;;5.88;2.63;;;;;;;;;;4975662;29;20535;-89
2023/11/23 21:54:10;;;;;;;9.50;1.93;;;;;;;;;;4975747;29;20207;-89
2023/11/23 21:56:38;;;;;;;6.30;2.00;;;;;;;;;;4966902;29;20409;-90
2023/11/23 21:59:05;;;;;;;13.50;2.10;;;8.00;99.90;;;;;;4964457;29;20429;-90
2023/11/23 22:01:33;;;;;;;7.90;2.70;;;;;;;;;;4967709;29;20450;-89
2023/11/23 22:04:03;;;;;;;5.13;2.67;;;;;;;;;;4967221;29;20457;-90
2023/11/23 22:06:30;;;;;;;9.00;2.23;;;;;;;;;;4963083;29;20205;-90
2023/11/23 22:08:58;;;;;;;5.80;2.30;;;;;;;;;;4962355;29;20452;-90
2023/11/23 22:11:26;;;;;;;11.43;3.87;;;;;;;;;;4961616;29;20525;-90
2023/11/23 22:13:53;;;;;;;5.93;2.80;;;8.10;99.90;;;;;;4961832;29;20535;-89
2023/11/23 22:16:20;;;;;;;9.67;3.17;;;8.10;99.90;;;;;;4961758;29;20453;-89
2023/11/23 22:18:48;;;;;;;9.40;2.07;;;;;;;;;;4961355;28;20895;-89
2023/11/23 22:21:18;;;;;;;6.13;2.73;;;;;;;;;;4961837;29;20473;-88
2023/11/23 22:23:45;;;;;;;9.97;2.77;;;8.00;52.80;;;;;;4962466;29;20474;-89
2023/11/23 22:26:13;;;;;;;11.13;3.10;;;;;;;;;;4964840;29;20480;-89
2023/11/23 22:28:42;;;;;;;6.85;3.05;;;7.90;99.90;;;;;;4977305;29;20466;-89
2023/11/23 22:31:12;;;;;;;7.20;3.20;;;9.40;1.00;;;;;;4966645;29;20207;-88
2023/11/23 22:33:39;;;;;;;4.67;2.53;;;;;;;;;;4962112;29;20225;-89
2023/11/23 22:36:07;;;;;;;11.77;2.70;;;7.00;1.00;;;;;;4962044;29;20454;-88
2023/11/23 22:38:36;;;;;;;8.30;2.80;;;10.10;1.00;;;;;;4961621;29;20532;-89
2023/11/23 22:41:04;;;;;;;8.93;2.87;;;;;;;;;;4969792;28;20450;-89
2023/11/23 22:43:31;;;;;;;11.93;3.20;;;7.70;1.00;;;;;;4978541;28;20478;-89
2023/11/23 22:46:01;;;;;;;12.07;3.33;;;7.70;99.90;;;;;;4973918;28;21015;-89
2023/11/23 22:48:28;;;;;;;12.67;2.70;;;;;;;;;;4964815;29;20224;-89
2023/11/23 22:50:55;;;;;;;11.93;2.65;;;;;;;;;;4961789;29;20492;-90
2023/11/23 22:53:22;;;;;;;8.80;2.67;;;;;;;;;;4977082;28;20203;-91
2023/11/23 22:55:49;;;;;;;11.80;3.17;;;;;;;;;;4968456;29;20206;-89
2023/11/23 22:58:17;;;;;;;4.27;1.93;;;;;;;;;;4968943;29;20983;-89
2023/11/23 23:00:44;;;;;;;8.10;2.97;;;;;;;;;;4966386;29;20500;-89
2023/11/23 23:03:14;;;;;;;10.82;3.08;;;;;;;;;;4972295;29;20285;-89
2023/11/23 23:05:41;;;;;;;11.65;3.50;;;;;;;;;;4974203;29;20194;-90
2023/11/23 23:08:08;;;;;;;12.83;3.20;;;;;;;;;;4968583;29;20222;-90
2023/11/23 23:10:38;;;;;;;21.48;3.30;;;;;;;;;;4966953;29;20446;-89
2023/11/23 23:13:05;;;;;;;10.00;2.90;;;;;;;;;;4964454;29;20238;-88
2023/11/23 23:15:33;;;;;;;16.20;3.37;;;;;;;;;;4978321;28;20478;-89
2023/11/23 23:18:01;;;;;;;7.93;3.10;;;7.60;1.00;;;;;;4979190;28;20461;-89
2023/11/23 23:20:29;;;;;;;9.40;3.00;;;;;;;;;;4965638;29;20206;-89
2023/11/23 23:22:57;;;;;;;17.13;3.67;;;;;;;;;;4961744;29;20466;-88
2023/11/23 23:25:24;;;;;;;9.17;2.80;;;;;;;;;;4962083;29;20492;-89
2023/11/23 23:27:51;;;;;;;8.63;2.65;;;7.90;1.00;;;;;;4971337;29;20457;-90
2023/11/23 23:30:18;;;;;;;8.27;2.75;;;7.70;1.00;;;;;;4977943;28;20213;-88
2023/11/23 23:32:45;;;;;;;10.70;2.90;;;;;;;;;;4973019;29;20290;-89
2023/11/23 23:35:13;;;;;;;14.88;2.78;;;;;;;;;;4965541;29;20521;-89
2023/11/23 23:37:41;;;;;;;6.32;2.95;;;7.60;99.90;;;;;;4964396;29;20233;-89
2023/11/23 23:40:10;;;;;;;19.75;2.75;;;7.60;99.90;;;;;;4963625;29;20305;-89
2023/11/23 23:42:37;;;;;;;12.43;3.60;;;;;;;;;;4963444;29;20255;-88
2023/11/23 23:45:05;;;;;;;7.18;2.42;;;7.70;99.90;;;;;;4967533;29;20482;-87
2023/11/23 23:47:32;;;;;;;7.47;2.40;;;;;;;;;;4970381;29;20214;-88
2023/11/23 23:50:04;;;;;;;5.35;2.42;;;;;;;;;;4978143;28;20521;-89
2023/11/23 23:52:32;;;;;;;4.37;1.70;;;;;;;;;;4965916;29;20227;-89
2023/11/23 23:55:03;;;;;;;14.60;2.70;;;;;;;;;;4964483;29;20421;-89